Weather history for 0504

Weather History For Prescott AZ

This page updates 5 minutes after midnight. GMT -7

Station: KPRC0 Rows: 26

Return to today's weather
Year Date Temp (°F) Tmin (°F) Tmax (°F) RH% Prcp Snow Wind Gust Pres Sun Cloud
2000 2000-05-04 67.8 51.1 82.0 23 14.6 29.83 0
2001 2001-05-04 50.2 36.0 64.0 32 13.1 29.92 2
2002 2002-05-04 58.8 41.0 73.4 23 12.9 29.93 0
2003 2003-05-04 52.2 42.8 62.6 43 19.4 29.82 0
2004 2004-05-04 70.5 18 13.9 29.90 0
2005 2005-05-04 60.8 44.1 75.9 38 0.0 8.7 29.93 1
2006 2006-05-04 61.7 46.0 71.1 20 0.0 17.5 29.79 0
2007 2007-05-04 56.1 44.1 66.0 27 0.0 24.3 29.60 0
2008 2008-05-04 61.0 43.0 73.9 18 0.0 12.4 29.77 0
2009 2009-05-04 64.6 48.0 78.1 30 0.0 8.5 29.83 0
2010 2010-05-04 59.7 39.9 78.1 23 0.0 11.7 29.97 0
2011 2011-05-04 62.8 39.0 81.0 17 0.0 9.2 29.99 0
2012 2012-05-04 63.5 46.9 75.9 27 0.0 14.6 29.90 0
2013 2013-05-04 62.6 45.0 75.9 17 0.0 11.0 29.72 0
2014 2014-05-04 67.3 48.0 82.0 15 0.0 18.5 29.88 0
2015 2015-05-04 54.3 51.1 60.1 64 12.0 29.82
2016 2016-05-04 65.8 46.9 81.0 30 0.0 15.5 29.89 0
2017 2017-05-04 68.0 46.9 84.9 26 0.0 10.3 29.93 0
2018 2018-05-04 59.5 42.1 75.9 40 0.0 7.5 30.12 0
2019 2019-05-04 62.8 46.0 78.1 24 0.0 12.2 29.79 1
2020 2020-05-04 64.6 45.0 79.0 26 0.0 8.8 29.91 0
2021 2021-05-04 62.4 44.1 75.9 25 0.0 11.8 29.88 0
2022 2022-05-04 56.8 37.0 72.0 24 0.0 9.6 29.87 0
2023 2023-05-04 53.8 46.0 61.0 33 0.0 20.4 29.76 0
2024 2024-05-04 62.8 48.0 73.9 28 0.0 16.8 29.73 0
2025 2025-05-04 55.2 44.1 64.9 47 0.1 17.4 29.57 4
Average Low 44.5
Average High 73.9

Daily High / Low by Year (05/04)

Barometric Pressure by Year (05/04)

Weather data provided by Meteostat